createdAt,value
2023-05-07T00:01:51.400Z,13.31
2023-05-07T00:04:27.399Z,13.39
2023-05-07T00:07:00.907Z,13.25
2023-05-07T00:09:40.323Z,13.29
2023-05-07T00:12:17.248Z,13.15
2023-05-07T00:14:48.033Z,13.20
2023-05-07T00:17:26.827Z,13.07
2023-05-07T00:20:03.500Z,12.94
2023-05-07T00:22:37.570Z,12.89
2023-05-07T00:25:11.731Z,12.71
2023-05-07T00:27:41.791Z,12.42
2023-05-07T00:30:48.109Z,12.46
2023-05-07T00:33:24.262Z,12.15
2023-05-07T00:38:40.168Z,12.32
2023-05-07T00:41:13.337Z,12.01
2023-05-07T00:43:47.665Z,12.31
2023-05-07T00:46:24.507Z,12.70
2023-05-07T00:48:58.334Z,12.75
2023-05-07T00:51:32.668Z,12.46
2023-05-07T00:54:14.547Z,12.30
2023-05-07T00:56:51.337Z,12.30
2023-05-07T00:59:24.828Z,12.44
2023-05-07T01:02:01.499Z,12.34
2023-05-07T01:04:32.917Z,12.15
2023-05-07T01:07:11.144Z,12.24
2023-05-07T01:09:41.933Z,12.11
2023-05-07T01:12:22.377Z,12.10
2023-05-07T01:14:53.115Z,11.91
2023-05-07T01:17:33.384Z,11.74
2023-05-07T01:20:15.634Z,11.89
2023-05-07T01:22:52.364Z,11.77
2023-05-07T01:25:21.506Z,11.84
2023-05-07T01:28:02.663Z,11.72
2023-05-07T01:30:38.378Z,11.94
2023-05-07T01:33:34.830Z,11.87
2023-05-07T01:36:08.726Z,11.69
2023-05-07T01:38:39.945Z,11.89
2023-05-07T01:41:20.595Z,11.71
2023-05-07T01:43:50.461Z,11.90
2023-05-07T01:49:17.552Z,11.79
2023-05-07T01:52:02.405Z,11.49
2023-05-07T01:54:45.096Z,11.34
2023-05-07T01:57:19.700Z,11.28
2023-05-07T01:59:50.172Z,11.29
2023-05-07T02:02:24.230Z,11.33
2023-05-07T02:04:59.746Z,11.41
2023-05-07T02:07:31.024Z,11.43
2023-05-07T02:10:08.281Z,11.52
2023-05-07T02:12:47.519Z,11.61
2023-05-07T02:15:24.216Z,11.60
2023-05-07T02:18:24.792Z,11.52
2023-05-07T02:20:56.625Z,11.43
2023-05-07T02:23:30.704Z,11.52
2023-05-07T02:26:01.796Z,11.38
2023-05-07T02:28:33.237Z,11.38
2023-05-07T02:31:07.997Z,11.30
2023-05-07T02:33:39.687Z,11.20
2023-05-07T02:36:13.143Z,11.00
2023-05-07T02:38:53.464Z,10.86
2023-05-07T02:41:24.821Z,11.00
2023-05-07T02:44:04.114Z,11.00
2023-05-07T02:46:47.737Z,11.13
2023-05-07T02:49:19.486Z,11.05
2023-05-07T02:51:51.010Z,11.30
2023-05-07T02:54:26.590Z,11.21
2023-05-07T02:56:58.846Z,10.97
2023-05-07T02:59:29.692Z,11.03
2023-05-07T03:02:15.482Z,11.10
2023-05-07T03:04:45.833Z,11.07
2023-05-07T03:07:17.381Z,10.77
2023-05-07T03:09:47.673Z,10.81
2023-05-07T03:12:21.197Z,10.66
2023-05-07T03:14:51.806Z,10.55
2023-05-07T03:17:25.879Z,10.54
2023-05-07T03:19:59.222Z,10.77
2023-05-07T03:22:33.850Z,10.92
2023-05-07T03:25:11.557Z,11.05
2023-05-07T03:27:46.244Z,11.03
2023-05-07T03:30:15.393Z,11.04
2023-05-07T03:32:46.170Z,11.12
2023-05-07T03:35:22.305Z,11.10
2023-05-07T03:37:55.693Z,10.91
2023-05-07T03:40:26.977Z,10.58
2023-05-07T03:42:59.398Z,10.73
2023-05-07T03:45:37.043Z,10.59
2023-05-07T03:48:20.552Z,10.57
2023-05-07T03:50:51.827Z,10.71
2023-05-07T03:53:25.506Z,10.75
2023-05-07T03:55:56.038Z,10.64
2023-05-07T03:58:41.577Z,10.65
2023-05-07T04:04:05.423Z,10.63
2023-05-07T04:06:35.641Z,10.66
2023-05-07T04:09:11.320Z,10.57
2023-05-07T04:11:54.835Z,10.21
2023-05-07T04:14:29.055Z,10.64
2023-05-07T04:17:05.304Z,10.82
2023-05-07T04:19:48.600Z,11.10
2023-05-07T04:22:23.649Z,11.24
2023-05-07T04:25:02.673Z,11.29
2023-05-07T04:27:34.153Z,11.24
2023-05-07T04:30:10.055Z,11.28
2023-05-07T04:32:47.248Z,11.46
2023-05-07T04:35:26.548Z,11.44
2023-05-07T04:38:14.255Z,11.41
2023-05-07T04:40:45.746Z,11.67
2023-05-07T04:43:25.710Z,11.74
2023-05-07T04:45:57.338Z,11.93
2023-05-07T04:48:31.434Z,12.02
2023-05-07T04:51:11.232Z,11.93
2023-05-07T04:53:46.688Z,12.20
2023-05-07T04:56:17.466Z,12.15
2023-05-07T04:58:50.957Z,12.28
2023-05-07T05:01:22.806Z,12.31
2023-05-07T05:04:08.980Z,12.24
2023-05-07T05:06:39.816Z,12.24
2023-05-07T05:09:12.542Z,12.26
2023-05-07T05:11:44.014Z,12.35
2023-05-07T05:14:16.329Z,12.42
2023-05-07T05:16:46.677Z,12.52
2023-05-07T05:19:22.292Z,12.58
2023-05-07T05:21:53.998Z,12.58
2023-05-07T05:24:27.514Z,12.75
2023-05-07T05:26:59.496Z,12.70
2023-05-07T05:29:33.688Z,12.74
2023-05-07T05:32:05.300Z,12.83
2023-05-07T05:34:44.338Z,12.90
2023-05-07T05:37:16.174Z,13.01
2023-05-07T05:39:50.255Z,13.03
2023-05-07T05:42:24.199Z,13.24
2023-05-07T05:44:55.472Z,13.26
2023-05-07T05:50:24.923Z,13.50
2023-05-07T05:53:00.710Z,13.66
2023-05-07T05:55:39.320Z,13.73
2023-05-07T05:58:13.799Z,13.67
2023-05-07T06:00:51.506Z,13.83
2023-05-07T06:03:36.946Z,13.79
2023-05-07T06:06:12.933Z,13.94
2023-05-07T06:08:52.468Z,13.85
2023-05-07T06:11:36.545Z,14.05
2023-05-07T06:14:07.435Z,14.26
2023-05-07T06:16:40.132Z,14.41
2023-05-07T06:19:13.652Z,14.65
2023-05-07T06:21:47.405Z,14.54
2023-05-07T06:24:18.970Z,14.72
2023-05-07T06:26:48.927Z,14.92
2023-05-07T06:29:22.841Z,14.83
2023-05-07T06:31:53.799Z,15.34
2023-05-07T06:34:30.535Z,15.43
2023-05-07T06:37:01.910Z,15.32
2023-05-07T06:39:55.114Z,15.35
2023-05-07T06:42:25.087Z,15.65
2023-05-07T06:45:01.297Z,15.66
2023-05-07T06:47:42.717Z,15.77
2023-05-07T06:50:24.769Z,15.90
2023-05-07T06:53:03.047Z,16.13
2023-05-07T06:55:36.404Z,16.20
2023-05-07T06:58:11.457Z,16.01
2023-05-07T07:00:45.066Z,16.18
2023-05-07T07:03:23.314Z,16.35
2023-05-07T07:06:03.326Z,16.42
2023-05-07T07:08:41.919Z,16.49
2023-05-07T07:11:17.638Z,16.69
2023-05-07T07:13:49.147Z,16.62
2023-05-07T07:16:19.335Z,16.68
2023-05-07T07:18:50.886Z,16.53
2023-05-07T07:21:22.259Z,17.07
2023-05-07T07:23:54.094Z,17.32
2023-05-07T07:26:34.050Z,17.11
2023-05-07T07:29:07.800Z,16.74
2023-05-07T07:31:39.412Z,17.20
2023-05-07T07:34:10.056Z,17.12
2023-05-07T07:36:46.163Z,17.29
2023-05-07T07:39:32.412Z,17.24
2023-05-07T07:42:06.597Z,17.14
2023-05-07T07:44:50.753Z,17.45
2023-05-07T07:47:28.489Z,17.66
2023-05-07T07:49:59.324Z,17.85
2023-05-07T07:52:35.467Z,17.78
2023-05-07T07:55:16.738Z,17.94
2023-05-07T07:57:51.625Z,17.90
2023-05-07T08:00:31.898Z,17.87
2023-05-07T08:03:04.376Z,18.01
2023-05-07T08:05:47.271Z,18.45
2023-05-07T08:11:03.194Z,18.62
2023-05-07T08:13:40.156Z,18.73
2023-05-07T08:16:14.659Z,18.80
2023-05-07T08:18:46.313Z,19.10
2023-05-07T08:21:17.701Z,18.93
2023-05-07T08:23:48.762Z,19.00
2023-05-07T08:26:19.641Z,19.14
2023-05-07T08:28:54.619Z,19.25
2023-05-07T08:31:22.779Z,19.18
2023-05-07T08:33:57.635Z,19.00
2023-05-07T08:36:35.748Z,19.29
2023-05-07T08:39:06.847Z,19.54
2023-05-07T08:41:35.297Z,19.86
2023-05-07T08:44:16.467Z,19.61
2023-05-07T08:46:54.117Z,19.85
2023-05-07T08:49:28.295Z,19.97
2023-05-07T08:52:02.589Z,20.14
2023-05-07T08:54:38.507Z,20.68
2023-05-07T08:57:14.409Z,20.26
2023-05-07T08:59:45.157Z,20.68
2023-05-07T09:02:19.951Z,21.12
2023-05-07T09:04:56.271Z,20.71
2023-05-07T09:07:27.321Z,21.13
2023-05-07T09:10:06.898Z,21.13
2023-05-07T09:12:42.576Z,20.73
2023-05-07T09:15:14.559Z,21.22
2023-05-07T09:17:45.986Z,21.18
2023-05-07T09:20:30.414Z,21.02
2023-05-07T09:23:10.138Z,21.09
2023-05-07T09:25:44.919Z,21.71
2023-05-07T09:28:31.258Z,21.57
2023-05-07T09:31:02.966Z,21.81
2023-05-07T09:33:34.203Z,21.79
2023-05-07T09:36:12.286Z,21.91
2023-05-07T09:38:47.997Z,22.31
2023-05-07T09:41:27.627Z,22.21
2023-05-07T09:44:09.943Z,22.02
2023-05-07T09:46:49.045Z,22.04
2023-05-07T09:49:28.260Z,22.05
2023-05-07T09:52:11.976Z,22.48
2023-05-07T09:54:50.192Z,22.57
2023-05-07T09:57:23.745Z,22.77
2023-05-07T10:00:12.030Z,23.16
2023-05-07T10:03:04.119Z,23.35
2023-05-07T10:05:51.521Z,23.66
2023-05-07T10:08:26.084Z,23.56
2023-05-07T10:11:01.556Z,23.59
2023-05-07T10:16:24.762Z,23.67
2023-05-07T10:19:10.430Z,23.92
2023-05-07T10:22:03.634Z,24.11
2023-05-07T10:24:38.170Z,23.70
2023-05-07T10:27:19.489Z,23.84
2023-05-07T10:30:38.417Z,24.22
2023-05-07T10:33:18.365Z,24.63
2023-05-07T10:36:11.227Z,24.58
2023-05-07T10:38:46.469Z,24.89
2023-05-07T10:41:31.619Z,24.26
2023-05-07T10:44:03.131Z,24.70
2023-05-07T10:46:36.754Z,24.93
2023-05-07T10:49:25.540Z,25.26
2023-05-07T10:52:20.053Z,24.83
2023-05-07T10:55:28.453Z,24.68
2023-05-07T10:58:46.392Z,24.92
2023-05-07T11:01:56.435Z,24.62
2023-05-07T11:05:37.305Z,25.18
2023-05-07T11:08:31.039Z,25.59
2023-05-07T11:11:12.817Z,25.18
2023-05-07T11:14:06.531Z,24.74
2023-05-07T11:16:53.118Z,24.76
2023-05-07T11:20:07.459Z,24.58
2023-05-07T11:23:03.307Z,24.56
2023-05-07T11:25:43.802Z,24.56
2023-05-07T11:28:23.648Z,24.82
2023-05-07T11:31:05.750Z,24.41
2023-05-07T11:33:38.738Z,24.51
2023-05-07T11:36:15.868Z,24.10
2023-05-07T11:41:41.419Z,24.74
2023-05-07T11:44:16.142Z,25.17
2023-05-07T11:46:50.928Z,25.01
2023-05-07T11:49:30.883Z,25.60
2023-05-07T11:52:11.258Z,25.89
2023-05-07T11:54:47.594Z,25.80
2023-05-07T11:57:19.471Z,26.21
2023-05-07T11:59:50.830Z,26.26
2023-05-07T12:02:24.205Z,26.31
2023-05-07T12:04:55.055Z,26.98
2023-05-07T12:07:23.806Z,26.91
2023-05-07T12:09:54.288Z,27.01
2023-05-07T12:12:25.812Z,27.23
2023-05-07T12:15:05.028Z,26.32
2023-05-07T12:17:35.907Z,26.37
2023-05-07T12:20:20.276Z,26.28
2023-05-07T12:22:53.091Z,25.99
2023-05-07T12:25:27.597Z,25.96
2023-05-07T12:27:56.468Z,26.01
2023-05-07T12:30:28.103Z,26.10
2023-05-07T12:32:58.706Z,26.19
2023-05-07T12:35:41.243Z,26.37
2023-05-07T12:41:07.613Z,26.55
2023-05-07T12:43:50.052Z,25.91
2023-05-07T12:46:23.694Z,25.47
2023-05-07T12:48:54.049Z,25.60
2023-05-07T12:51:26.778Z,25.68
2023-05-07T12:54:08.257Z,25.91
2023-05-07T12:56:38.627Z,25.89
2023-05-07T12:59:12.654Z,25.40
2023-05-07T13:01:50.687Z,25.03
2023-05-07T13:04:30.759Z,24.70
2023-05-07T13:07:03.352Z,24.92
2023-05-07T13:09:33.550Z,25.02
2023-05-07T13:12:13.102Z,24.76
2023-05-07T13:17:27.294Z,25.15
2023-05-07T13:19:59.661Z,24.86
2023-05-07T13:22:31.811Z,25.38
2023-05-07T13:25:03.021Z,25.32
2023-05-07T13:27:40.855Z,25.48
2023-05-07T13:32:54.171Z,25.49
2023-05-07T13:35:31.754Z,25.06
2023-05-07T13:38:06.289Z,25.32
2023-05-07T13:40:38.664Z,25.50
2023-05-07T13:43:12.772Z,25.23
2023-05-07T13:45:46.106Z,24.65
2023-05-07T13:48:20.220Z,24.46
2023-05-07T13:53:42.753Z,25.04
2023-05-07T13:56:13.060Z,25.57
2023-05-07T13:58:59.468Z,25.50
2023-05-07T14:01:36.966Z,25.80
2023-05-07T14:04:14.902Z,26.09
2023-05-07T14:06:45.686Z,26.24
2023-05-07T14:09:19.436Z,26.44
2023-05-07T14:12:00.530Z,26.12
2023-05-07T14:14:48.785Z,26.06
2023-05-07T14:17:19.407Z,26.69
2023-05-07T14:19:56.466Z,26.13
2023-05-07T14:22:35.046Z,24.77
2023-05-07T14:25:10.024Z,25.15
2023-05-07T14:27:52.356Z,24.07
2023-05-07T14:30:23.577Z,25.10
2023-05-07T14:32:58.805Z,25.44
2023-05-07T14:35:32.721Z,26.55
2023-05-07T14:40:46.199Z,26.85
2023-05-07T14:43:18.390Z,24.91
2023-05-07T14:45:55.865Z,25.47
2023-05-07T14:48:28.164Z,24.65
2023-05-07T14:51:02.365Z,23.80
2023-05-07T14:53:34.317Z,24.42
2023-05-07T14:56:16.194Z,24.19
2023-05-07T14:58:57.480Z,24.20
2023-05-07T15:01:27.783Z,24.19
2023-05-07T15:04:04.761Z,24.26
2023-05-07T15:06:36.279Z,24.32
2023-05-07T15:09:09.145Z,23.37
2023-05-07T15:11:41.031Z,23.22
2023-05-07T15:14:11.443Z,22.62
2023-05-07T15:16:50.495Z,22.70
2023-05-07T15:19:24.361Z,22.49
2023-05-07T15:22:07.689Z,22.38
2023-05-07T15:24:37.542Z,23.36
2023-05-07T15:27:11.947Z,23.05
2023-05-07T15:29:46.633Z,22.67
2023-05-07T15:32:23.737Z,22.16
2023-05-07T15:34:54.670Z,21.76
2023-05-07T15:43:01.507Z,21.45
2023-05-07T15:45:38.744Z,21.48
2023-05-07T15:48:09.836Z,21.48
2023-05-07T15:50:40.881Z,21.27
2023-05-07T15:53:17.080Z,21.32
2023-05-07T15:55:55.055Z,21.24
2023-05-07T15:58:38.982Z,21.73
2023-05-07T16:01:20.238Z,21.51
2023-05-07T16:03:54.626Z,21.38
2023-05-07T16:06:25.833Z,21.31
2023-05-07T16:08:54.647Z,21.43
2023-05-07T16:14:11.052Z,21.44
2023-05-07T16:16:48.080Z,21.35
2023-05-07T16:19:20.230Z,21.14
2023-05-07T16:21:52.504Z,20.87
2023-05-07T16:24:30.643Z,20.95
2023-05-07T16:27:04.551Z,20.83
2023-05-07T16:29:37.198Z,21.17
2023-05-07T16:32:17.774Z,21.07
2023-05-07T16:34:51.755Z,20.87
2023-05-07T16:37:32.576Z,20.98
2023-05-07T16:40:10.458Z,20.95
2023-05-07T16:45:41.534Z,20.89
2023-05-07T16:48:21.219Z,20.75
2023-05-07T16:51:02.038Z,20.78
2023-05-07T16:53:32.518Z,20.76
2023-05-07T16:56:10.272Z,20.77
2023-05-07T16:58:41.209Z,20.73
2023-05-07T17:01:24.469Z,20.66
2023-05-07T17:04:04.002Z,20.59
2023-05-07T17:06:37.037Z,20.45
2023-05-07T17:09:11.963Z,20.19
2023-05-07T17:11:57.651Z,20.19
2023-05-07T17:14:33.939Z,20.17
2023-05-07T17:17:04.774Z,20.32
2023-05-07T17:19:47.517Z,20.13
2023-05-07T17:22:15.212Z,19.88
2023-05-07T17:24:42.871Z,20.22
2023-05-07T17:27:10.574Z,20.28
2023-05-07T17:29:41.947Z,19.92
2023-05-07T17:32:19.374Z,19.93
2023-05-07T17:34:56.146Z,19.87
2023-05-07T17:37:26.825Z,19.90
2023-05-07T17:39:58.218Z,19.77
2023-05-07T17:42:29.939Z,19.85
2023-05-07T17:45:16.258Z,19.90
2023-05-07T17:47:46.714Z,19.86
2023-05-07T17:50:20.724Z,19.78
2023-05-07T17:52:56.603Z,19.70
2023-05-07T17:55:35.766Z,19.51
2023-05-07T17:58:09.818Z,19.45
2023-05-07T18:00:45.971Z,19.09
2023-05-07T18:03:19.329Z,19.06
2023-05-07T18:05:53.612Z,19.07
2023-05-07T18:08:26.967Z,18.90
2023-05-07T18:10:57.961Z,18.96
2023-05-07T18:13:28.655Z,18.91
2023-05-07T18:15:59.664Z,18.95
2023-05-07T18:18:33.454Z,18.95
2023-05-07T18:21:21.128Z,18.96
2023-05-07T18:23:54.451Z,18.88
2023-05-07T18:26:25.229Z,18.79
2023-05-07T18:28:54.392Z,18.75
2023-05-07T18:34:07.533Z,18.85
2023-05-07T18:36:36.654Z,18.92
2023-05-07T18:39:07.531Z,19.06
2023-05-07T18:41:36.516Z,18.97
2023-05-07T18:44:10.499Z,18.69
2023-05-07T18:46:44.234Z,18.73
2023-05-07T18:49:21.549Z,18.82
2023-05-07T18:51:53.835Z,18.86
2023-05-07T18:54:27.749Z,18.57
2023-05-07T18:57:00.906Z,18.61
2023-05-07T18:59:35.048Z,18.59
2023-05-07T19:02:05.595Z,18.67
2023-05-07T19:04:39.379Z,18.74
2023-05-07T19:07:07.784Z,18.76
2023-05-07T19:09:38.759Z,18.58
2023-05-07T19:12:15.995Z,18.58
2023-05-07T19:17:35.660Z,18.58
2023-05-07T19:20:12.077Z,18.61
2023-05-07T19:22:42.344Z,18.43
2023-05-07T19:25:15.682Z,18.47
2023-05-07T19:27:48.187Z,18.47
2023-05-07T19:30:18.931Z,18.43
2023-05-07T19:32:59.617Z,18.33
2023-05-07T19:35:29.717Z,18.30
2023-05-07T19:38:14.045Z,18.46
2023-05-07T19:40:42.950Z,18.37
2023-05-07T19:43:16.874Z,18.41
2023-05-07T19:45:51.679Z,18.38
2023-05-07T19:48:30.244Z,18.13
2023-05-07T19:51:09.585Z,18.19
2023-05-07T19:53:40.696Z,18.09
2023-05-07T19:56:14.692Z,18.03
2023-05-07T19:58:45.684Z,18.06
2023-05-07T20:01:19.393Z,17.95
2023-05-07T20:03:49.810Z,17.84
2023-05-07T20:06:20.917Z,17.94
2023-05-07T20:08:48.827Z,17.89
2023-05-07T20:11:16.733Z,17.80
2023-05-07T20:13:44.481Z,17.86
2023-05-07T20:16:17.893Z,17.84
2023-05-07T20:18:48.254Z,17.70
2023-05-07T20:21:20.335Z,17.65
2023-05-07T20:24:00.993Z,17.63
2023-05-07T20:26:37.483Z,17.59
2023-05-07T20:29:07.690Z,17.53
2023-05-07T20:31:38.935Z,17.63
2023-05-07T20:34:07.574Z,17.55
2023-05-07T20:36:42.078Z,17.38
2023-05-07T20:39:18.836Z,17.40
2023-05-07T20:41:55.664Z,17.41
2023-05-07T20:44:38.236Z,17.36
2023-05-07T20:47:18.186Z,17.36
2023-05-07T20:49:56.071Z,17.30
2023-05-07T20:52:31.521Z,17.26
2023-05-07T20:55:10.424Z,17.28
2023-05-07T20:57:41.558Z,17.22
2023-05-07T21:00:14.934Z,17.24
2023-05-07T21:03:05.222Z,17.18
2023-05-07T21:05:42.008Z,17.11
2023-05-07T21:08:20.890Z,17.00
2023-05-07T21:10:54.329Z,16.89
2023-05-07T21:16:23.937Z,16.64
2023-05-07T21:18:56.529Z,16.58
2023-05-07T21:21:31.566Z,16.42
2023-05-07T21:24:02.075Z,16.53
2023-05-07T21:26:33.113Z,16.39
2023-05-07T21:29:17.916Z,16.35
2023-05-07T21:31:52.150Z,16.49
2023-05-07T21:34:20.915Z,16.45
2023-05-07T21:36:55.597Z,16.41
2023-05-07T21:39:25.250Z,16.35
2023-05-07T21:41:56.847Z,16.30
2023-05-07T21:44:26.990Z,16.38
2023-05-07T21:47:00.217Z,16.35
2023-05-07T21:49:35.188Z,16.23
2023-05-07T21:52:03.584Z,16.28
2023-05-07T21:54:41.599Z,16.25
2023-05-07T21:57:21.429Z,16.29
2023-05-07T21:59:53.137Z,16.27
2023-05-07T22:05:20.116Z,16.11
2023-05-07T22:07:50.473Z,16.01
2023-05-07T22:10:30.515Z,15.98
2023-05-07T22:13:00.897Z,15.96
2023-05-07T22:15:35.267Z,15.96
2023-05-07T22:18:14.887Z,15.93
2023-05-07T22:20:46.227Z,16.01
2023-05-07T22:23:17.212Z,16.08
2023-05-07T22:25:48.604Z,16.09
2023-05-07T22:28:22.463Z,15.88
2023-05-07T22:30:59.653Z,15.99
2023-05-07T22:33:37.265Z,16.02
2023-05-07T22:36:11.150Z,16.10
2023-05-07T22:38:41.950Z,16.00
2023-05-07T22:41:29.460Z,16.01
2023-05-07T22:44:03.904Z,15.94
2023-05-07T22:46:37.808Z,15.86
2023-05-07T22:49:11.209Z,15.90
2023-05-07T22:51:49.770Z,15.74
2023-05-07T22:54:25.250Z,15.66
2023-05-07T22:56:57.121Z,15.72
2023-05-07T22:59:27.415Z,15.55
2023-05-07T23:02:08.260Z,15.60
2023-05-07T23:04:42.029Z,15.59
2023-05-07T23:10:03.169Z,15.62
2023-05-07T23:12:32.244Z,15.51
2023-05-07T23:15:00.616Z,15.46
2023-05-07T23:17:37.960Z,15.41
2023-05-07T23:20:10.045Z,15.45
2023-05-07T23:22:52.484Z,15.47
2023-05-07T23:25:27.031Z,15.43
2023-05-07T23:28:05.652Z,15.52
2023-05-07T23:30:36.475Z,15.54
2023-05-07T23:33:11.352Z,15.49
2023-05-07T23:35:49.226Z,15.38
2023-05-07T23:38:19.936Z,15.27
2023-05-07T23:40:57.155Z,15.29
2023-05-07T23:43:31.468Z,15.36
2023-05-07T23:46:02.829Z,15.31
2023-05-07T23:48:35.628Z,15.26
2023-05-07T23:51:05.717Z,15.22
2023-05-07T23:53:37.022Z,15.05
2023-05-07T23:56:07.904Z,15.11
2023-05-07T23:58:47.479Z,15.11
